Decoded Metar for CYYG (CHARLOTTETOWN in PE, CANADA) (IATA:YYG) | Meteo·Mobile Aviation Weather
aviador You're here:

CYYG Decoded Metar

CHARLOTTETOWN in PE, CANADA
Report Time2018-09-19 14:00:00
UTC Time2018-09-19 15:02:15
Flight Rules vfr VFR
Wind050° at 10 kt
W.Decomp.*RWY 10: 8.7 kt HW 5 kt LCW
RWY 03: 7.7 kt HW 6.4 kt RCW
W.Rank050° ranks 29
Current wind is above 050° avg. (8.6)
Visibility9999 m
Phenomena:Vicinity showers
Clouds:Few 010 Hf
Overcast 038 Hf
Expected CloudBase > 400 ft AGL from Temp-Dew spread
Ceiling3,800 ft
Temp12°C (ISA -3)
Dew Point11°C (94% RH)
AAT8.7°C
QNH1017 hPa
Density Alt-98 ft
Elevation177 ft
Report Wrong Elevation
Raw Report
CYYG 191400Z 05010KT 15SM VCSH FEW010 OVC038 12/11 A3002 RMK
CF2SC6 SLP167=

Extra information for CYYG:More info

Metar Taf Metar & Taf Last 4 Metars F.Rules Stats Wind Profile Meteogram Temp Stats Airport Information Weather charts Add Link Nearby VenuesMetar ALERT Operation Metar Decoded Social comments